Time;durP1;ratioP1;P1;durP2;ratioP2;P2;SDS_P1;SDS_P2;PMS_P1;PMS_P2;Temp;Humidity;BMP_temperature;BMP_pressure;BME280_temperature;BME280_humidity;BME280_pressure;Samples;Min_cycle;Max_cycle;Signal;HPM_P1;HPM_P2
2021/11/04 00:01:07;;;;;;;32.50;12.38;;;;;;;;;;5052009;28;20029;-59
2021/11/04 00:03:34;;;;;;;32.33;11.57;;;;;;;;;;5047463;28;20080;-58
2021/11/04 00:06:00;;;;;;;31.15;11.55;;;;;;;;;;5062285;28;20443;-57
2021/11/04 00:08:27;;;;;;;30.85;11.18;;;;;;;;;;5060787;28;20063;-58
2021/11/04 00:10:54;;;;;;;39.47;13.18;;;;;;;;;;5063284;28;20041;-58
2021/11/04 00:13:23;;;;;;;32.73;12.27;;;;;;;;;;5049937;28;20040;-58
2021/11/04 00:15:50;;;;;;;35.60;12.50;;;;;;;;;;5067571;28;20041;-59
2021/11/04 00:18:17;;;;;;;35.90;12.68;;;;;;;;;;5045934;28;20044;-58
2021/11/04 00:20:43;;;;;;;37.20;12.13;;;;;;;;;;5055094;28;20052;-58
2021/11/04 00:23:11;;;;;;;30.88;11.90;;;;;;;;;;5046157;28;20032;-58
2021/11/04 00:25:38;;;;;;;35.13;13.07;;;;;;;;;;5053178;28;20070;-58
2021/11/04 00:28:06;;;;;;;33.20;12.50;;;;;;;;;;5050328;28;20063;-58
2021/11/04 00:30:32;;;;;;;35.50;11.98;;;;;;;;;;5053546;28;20082;-58
2021/11/04 00:32:59;;;;;;;30.48;11.32;;;;;;;;;;5049391;28;20041;-58
2021/11/04 00:35:25;;;;;;;33.65;12.23;;;;;;;;;;5047961;28;20047;-58
2021/11/04 00:37:52;;;;;;;31.10;11.65;;;;;;;;;;5046257;28;20056;-59
2021/11/04 00:40:20;;;;;;;32.05;12.32;;;;;;;;;;5051260;28;20041;-58
2021/11/04 00:42:46;;;;;;;30.35;11.55;;;;;;;;;;5061220;28;20069;-57
2021/11/04 00:45:15;;;;;;;32.38;12.38;;;;;;;;;;5015876;28;20070;-58
2021/11/04 00:47:42;;;;;;;30.33;11.48;;;;;;;;;;5014881;28;20034;-58
2021/11/04 00:50:09;;;;;;;28.85;11.40;;;;;;;;;;5011378;28;20045;-58
2021/11/04 00:52:36;;;;;;;27.27;11.00;;;;;;;;;;5013512;28;20132;-57
2021/11/04 00:55:02;;;;;;;35.65;12.15;;;;;;;;;;5009721;28;20070;-58
2021/11/04 00:57:29;;;;;;;29.63;11.32;;;;;;;;;;5013757;28;20113;-57
2021/11/04 00:59:55;;;;;;;28.10;11.63;;;;;;;;;;5013092;28;20042;-57
2021/11/04 01:02:23;;;;;;;37.25;13.15;;;;;;;;;;5014082;28;20041;-59
2021/11/04 01:04:50;;;;;;;31.48;11.45;;;;;;;;;;5012253;28;20127;-58
2021/11/04 01:07:16;;;;;;;29.38;10.95;;;;;;;;;;5014753;28;20053;-59
2021/11/04 01:09:43;;;;;;;26.35;10.30;;;;;;;;;;5011675;28;20127;-56
2021/11/04 01:12:10;;;;;;;31.23;11.00;;;;;;;;;;5015201;28;20045;-59
2021/11/04 01:14:36;;;;;;;27.90;10.07;;;;;;;;;;5012094;28;20034;-59
2021/11/04 01:17:03;;;;;;;28.92;11.52;;;;;;;;;;5012451;28;20057;-58
2021/11/04 01:19:31;;;;;;;28.35;9.95;;;;;;;;;;5011305;28;20042;-57
2021/11/04 01:21:57;;;;;;;31.27;11.67;;;;;;;;;;5018695;28;20048;-59
2021/11/04 01:24:25;;;;;;;31.00;12.48;;;;;;;;;;5008008;28;20042;-57
2021/11/04 01:26:51;;;;;;;30.70;11.80;;;;;;;;;;5009349;28;20173;-58
2021/11/04 01:29:18;;;;;;;30.95;11.90;;;;;;;;;;5015944;28;20041;-58
2021/11/04 01:31:44;;;;;;;33.40;12.00;;;;;;;;;;5013156;28;20038;-59
2021/11/04 01:34:11;;;;;;;31.73;12.55;;;;;;;;;;5014717;28;20030;-58
2021/11/04 01:36:41;;;;;;;28.90;10.88;;;;;;;;;;5009433;28;20143;-58
2021/11/04 01:39:08;;;;;;;29.63;11.63;;;;;;;;;;5015966;28;20042;-59
2021/11/04 01:41:35;;;;;;;31.63;11.60;;;;;;;;;;5011318;28;20135;-58
2021/11/04 01:44:01;;;;;;;30.05;11.60;;;;;;;;;;5019199;28;20038;-58
2021/11/04 01:46:28;;;;;;;30.13;11.73;;;;;;;;;;5026394;28;20052;-58
2021/11/04 01:48:54;;;;;;;31.92;11.98;;;;;;;;;;5030198;28;20523;-59
2021/11/04 01:51:21;;;;;;;35.47;11.55;;;;;;;;;;5039538;28;20049;-56
2021/11/04 01:53:51;;;;;;;36.47;10.40;;;;;;;;;;5043502;28;20052;-57
2021/11/04 01:56:17;;;;;;;32.47;12.50;;;;;;;;;;5037917;28;20052;-57
2021/11/04 01:58:44;;;;;;;28.13;11.27;;;;;;;;;;5044361;28;20610;-58
2021/11/04 02:01:11;;;;;;;27.65;10.75;;;;;;;;;;5038400;28;20059;-58
2021/11/04 02:03:44;;;;;;;25.30;10.05;;;;;;;;;;5043796;28;20045;-58
2021/11/04 02:06:14;;;;;;;25.33;10.40;;;;;;;;;;5039057;28;20101;-58
2021/11/04 02:08:44;;;;;;;29.95;10.68;;;;;;;;;;5042642;28;20122;-57
2021/11/04 02:11:13;;;;;;;25.70;10.07;;;;;;;;;;5041594;28;20040;-58
2021/11/04 02:13:44;;;;;;;23.52;9.73;;;;;;;;;;5039941;28;20061;-58
2021/11/04 02:16:11;;;;;;;28.02;10.80;;;;;;;;;;5042749;28;20058;-57
2021/11/04 02:18:38;;;;;;;26.33;10.52;;;;;;;;;;5039789;28;20059;-57
2021/11/04 02:21:10;;;;;;;24.35;9.85;;;;;;;;;;5029038;28;20038;-57
2021/11/04 02:23:44;;;;;;;28.02;10.48;;;;;;;;;;5032039;28;20037;-58
2021/11/04 02:26:12;;;;;;;24.00;9.98;;;;;;;;;;5026339;28;20037;-57
2021/11/04 02:28:40;;;;;;;30.35;10.93;;;;;;;;;;5016891;28;20069;-57
2021/11/04 02:31:07;;;;;;;36.03;9.68;;;;;;;;;;5020162;28;20058;-58
2021/11/04 02:33:38;;;;;;;28.83;9.95;;;;;;;;;;5016928;28;20030;-59
2021/11/04 02:36:06;;;;;;;29.33;10.43;;;;;;;;;;5020255;28;20046;-58
2021/11/04 02:38:32;;;;;;;27.85;10.73;;;;;;;;;;5017649;28;20053;-59
2021/11/04 02:41:00;;;;;;;25.77;9.85;;;;;;;;;;5023240;28;20049;-59
2021/11/04 02:43:28;;;;;;;25.80;10.30;;;;;;;;;;5020984;28;20077;-57
2021/11/04 02:45:55;;;;;;;31.02;10.90;;;;;;;;;;5038310;28;20060;-58
2021/11/04 02:48:21;;;;;;;32.10;11.30;;;;;;;;;;5037087;28;20041;-57
2021/11/04 02:50:48;;;;;;;28.73;10.73;;;;;;;;;;5054631;28;20040;-58
2021/11/04 02:53:16;;;;;;;30.25;10.73;;;;;;;;;;5047631;28;20044;-57
2021/11/04 02:55:43;;;;;;;28.65;11.23;;;;;;;;;;5046290;28;20037;-58
2021/11/04 02:58:10;;;;;;;26.83;11.18;;;;;;;;;;5049739;28;20084;-58
2021/11/04 03:00:39;;;;;;;27.17;10.43;;;;;;;;;;5049869;28;20043;-58
2021/11/04 03:03:06;;;;;;;29.10;11.43;;;;;;;;;;5043913;28;20125;-59
2021/11/04 03:05:32;;;;;;;23.02;10.38;;;;;;;;;;5021368;28;20069;-58
2021/11/04 03:07:59;;;;;;;22.42;9.40;;;;;;;;;;5024512;28;20041;-57
2021/11/04 03:10:26;;;;;;;26.20;10.25;;;;;;;;;;5022061;28;20042;-59
2021/11/04 03:12:54;;;;;;;22.75;9.65;;;;;;;;;;5037544;28;20044;-58
2021/11/04 03:15:21;;;;;;;;;;;;;;;;;;5027569;28;20033;-58
2021/11/04 03:17:49;;;;;;;21.83;9.05;;;;;;;;;;5023187;28;19925;-57
2021/11/04 03:20:17;;;;;;;19.48;9.07;;;;;;;;;;5019545;28;20395;-58
2021/11/04 03:22:44;;;;;;;21.95;8.50;;;;;;;;;;5030007;28;20052;-59
2021/11/04 03:25:12;;;;;;;23.55;9.10;;;;;;;;;;5040064;28;20565;-59
2021/11/04 03:27:40;;;;;;;20.75;9.05;;;;;;;;;;5044608;28;20037;-60
2021/11/04 03:30:07;;;;;;;18.85;8.35;;;;;;;;;;5040888;28;20056;-58
2021/11/04 03:32:34;;;;;;;21.08;8.13;;;;;;;;;;5044269;28;20029;-58
2021/11/04 03:35:02;;;;;;;22.40;9.13;;;;;;;;;;5035953;28;20037;-58
2021/11/04 03:37:28;;;;;;;22.63;8.77;;;;;;;;;;5029079;28;20044;-58
2021/11/04 03:39:55;;;;;;;20.25;8.95;;;;;;;;;;5040194;28;20047;-58
2021/11/04 03:42:22;;;;;;;20.30;8.98;;;;;;;;;;5044226;28;20033;-58
2021/11/04 03:44:49;;;;;;;24.88;9.10;;;;;;;;;;5041735;28;20044;-58
2021/11/04 03:47:17;;;;;;;24.88;10.57;;;;;;;;;;5039719;28;20045;-58
2021/11/04 03:49:43;;;;;;;24.75;10.00;;;;;;;;;;5033540;28;20041;-58
2021/11/04 03:52:11;;;;;;;21.73;9.25;;;;;;;;;;5022986;28;20045;-59
2021/11/04 03:54:38;;;;;;;21.77;10.32;;;;;;;;;;5040662;28;20051;-59
2021/11/04 03:57:05;;;;;;;23.67;9.93;;;;;;;;;;5037926;28;20041;-59
2021/11/04 03:59:31;;;;;;;22.63;9.50;;;;;;;;;;5042449;28;20045;-59
2021/11/04 04:01:58;;;;;;;23.63;9.52;;;;;;;;;;5026960;28;20054;-58
2021/11/04 04:04:25;;;;;;;24.60;9.63;;;;;;;;;;5024032;28;20168;-59
2021/11/04 04:06:52;;;;;;;25.42;9.20;;;;;;;;;;5029134;28;20111;-59
2021/11/04 04:09:21;;;;;;;25.52;8.85;;;;;;;;;;5043547;28;20033;-58
2021/11/04 04:11:47;;;;;;;;;;;;;;;;;;5032923;28;20132;-58
2021/11/04 04:14:15;;;;;;;24.00;8.02;;;;;;;;;;5023578;28;19917;-57
2021/11/04 04:16:41;;;;;;;20.05;9.07;;;;;;;;;;5021359;28;20508;-59
2021/11/04 04:19:08;;;;;;;21.30;9.23;;;;;;;;;;5025220;28;20100;-59
2021/11/04 04:21:34;;;;;;;20.02;8.93;;;;;;;;;;5019236;28;22163;-59
2021/11/04 04:24:01;;;;;;;19.25;9.02;;;;;;;;;;5023275;28;20052;-58
2021/11/04 04:26:30;;;;;;;22.33;8.48;;;;;;;;;;5021681;28;20123;-57
2021/11/04 04:28:56;;;;;;;20.45;8.85;;;;;;;;;;5022098;28;20042;-59
2021/11/04 04:31:22;;;;;;;22.35;9.52;;;;;;;;;;5025241;28;20046;-59
2021/11/04 04:33:49;;;;;;;21.88;9.93;;;;;;;;;;5020249;28;20042;-58
2021/11/04 04:36:16;;;;;;;19.88;8.85;;;;;;;;;;5023766;28;20053;-58
2021/11/04 04:38:42;;;;;;;21.08;9.02;;;;;;;;;;5018778;28;20476;-59
2021/11/04 04:41:10;;;;;;;16.38;8.45;;;;;;;;;;5022668;28;20045;-58
2021/11/04 04:43:38;;;;;;;24.38;9.57;;;;;;;;;;5019543;28;20044;-58
2021/11/04 04:46:04;;;;;;;19.90;8.77;;;;;;;;;;5023702;28;20048;-57
2021/11/04 04:48:30;;;;;;;20.30;8.77;;;;;;;;;;5006849;28;20042;-58
2021/11/04 04:50:57;;;;;;;19.50;8.93;;;;;;;;;;5017335;28;20052;-58
2021/11/04 04:53:23;;;;;;;16.33;7.70;;;;;;;;;;5012929;28;20165;-58
2021/11/04 04:55:50;;;;;;;18.23;7.90;;;;;;;;;;5003209;28;20034;-57
2021/11/04 04:58:16;;;;;;;16.50;7.63;;;;;;;;;;4998411;28;20046;-58
2021/11/04 05:00:44;;;;;;;16.48;7.10;;;;;;;;;;5006919;28;20046;-58
2021/11/04 05:03:11;;;;;;;13.93;6.80;;;;;;;;;;5017113;28;20069;-57
2021/11/04 05:05:37;;;;;;;15.52;7.45;;;;;;;;;;5003264;28;20034;-58
2021/11/04 05:08:04;;;;;;;14.80;7.45;;;;;;;;;;5003586;28;20092;-58
2021/11/04 05:10:31;;;;;;;19.08;7.43;;;;;;;;;;5000431;28;20034;-58
2021/11/04 05:12:59;;;;;;;16.23;7.32;;;;;;;;;;5018950;28;20048;-58
2021/11/04 05:15:25;;;;;;;16.07;7.27;;;;;;;;;;5019730;28;20188;-57
2021/11/04 05:17:53;;;;;;;16.25;7.07;;;;;;;;;;5023209;28;20484;-58
2021/11/04 05:20:23;;;;;;;14.68;6.70;;;;;;;;;;5004300;28;20034;-59
2021/11/04 05:22:49;;;;;;;14.63;6.50;;;;;;;;;;5018173;28;20042;-57
2021/11/04 05:25:16;;;;;;;13.38;5.82;;;;;;;;;;5000640;28;20038;-58
2021/11/04 05:27:47;;;;;;;14.23;6.60;;;;;;;;;;5004489;28;20045;-58
2021/11/04 05:30:14;;;;;;;13.27;6.00;;;;;;;;;;4999985;28;20042;-58
2021/11/04 05:32:41;;;;;;;13.63;6.30;;;;;;;;;;5004267;28;20042;-58
2021/11/04 05:35:09;;;;;;;14.88;6.65;;;;;;;;;;4998570;28;20418;-58
2021/11/04 05:37:36;;;;;;;12.85;6.00;;;;;;;;;;5003498;28;20053;-58
2021/11/04 05:40:03;;;;;;;15.38;6.18;;;;;;;;;;5005436;28;20038;-58
2021/11/04 05:42:29;;;;;;;11.90;5.53;;;;;;;;;;5021291;28;20091;-59
2021/11/04 05:44:56;;;;;;;13.23;5.85;;;;;;;;;;5030802;28;20154;-58
2021/11/04 05:47:22;;;;;;;13.43;5.93;;;;;;;;;;5023353;28;20034;-59
2021/11/04 05:49:49;;;;;;;12.38;6.28;;;;;;;;;;5019344;28;20131;-58
2021/11/04 05:52:17;;;;;;;15.02;6.35;;;;;;;;;;5021373;28;20049;-59
2021/11/04 05:54:43;;;;;;;15.45;6.45;;;;;;;;;;5022681;28;20033;-58
2021/11/04 05:57:10;;;;;;;13.63;6.18;;;;;;;;;;5036366;28;20037;-59
2021/11/04 05:59:36;;;;;;;10.68;5.40;;;;;;;;;;5040689;28;20038;-58
2021/11/04 06:02:03;;;;;;;15.48;7.28;;;;;;;;;;5036785;28;20035;-57
2021/11/04 06:04:34;;;;;;;15.63;7.45;;;;;;;;;;5042688;28;20051;-56
2021/11/04 06:07:03;;;;;;;14.70;7.43;;;;;;;;;;5024879;28;20033;-58
2021/11/04 06:09:31;;;;;;;17.40;7.32;;;;;;;;;;5022420;28;20037;-58
2021/11/04 06:11:57;;;;;;;16.33;7.10;;;;;;;;;;5024033;28;20139;-58
2021/11/04 06:14:24;;;;;;;13.18;6.05;;;;;;;;;;5026620;28;20037;-58
2021/11/04 06:16:51;;;;;;;15.13;6.40;;;;;;;;;;5037867;28;20041;-58
2021/11/04 06:19:17;;;;;;;12.70;5.85;;;;;;;;;;5043733;28;20045;-58
2021/11/04 06:21:44;;;;;;;13.65;6.20;;;;;;;;;;5039684;28;20055;-59
2021/11/04 06:24:12;;;;;;;12.82;6.43;;;;;;;;;;5038710;28;20052;-57
2021/11/04 06:26:40;;;;;;;11.60;5.67;;;;;;;;;;5037097;28;20045;-58
2021/11/04 06:29:07;;;;;;;13.18;6.20;;;;;;;;;;5042789;28;20045;-57
2021/11/04 06:31:34;;;;;;;11.98;5.90;;;;;;;;;;5039824;28;20045;-58
2021/11/04 06:34:01;;;;;;;10.82;5.65;;;;;;;;;;5034175;28;20073;-59
2021/11/04 06:36:27;;;;;;;13.23;6.00;;;;;;;;;;5024637;28;20125;-58
2021/11/04 06:38:54;;;;;;;10.40;5.40;;;;;;;;;;5025339;28;20045;-56
2021/11/04 06:41:20;;;;;;;10.68;5.40;;;;;;;;;;5044150;28;20061;-59
2021/11/04 06:43:48;;;;;;;12.15;5.57;;;;;;;;;;5030127;28;20042;-58
2021/11/04 06:46:15;;;;;;;16.02;5.85;;;;;;;;;;5025543;28;20029;-57
2021/11/04 06:48:42;;;;;;;10.15;4.95;;;;;;;;;;5016735;28;20041;-57
2021/11/04 06:51:09;;;;;;;14.75;6.00;;;;;;;;;;5021416;28;20041;-57
2021/11/04 06:53:41;;;;;;;10.90;5.55;;;;;;;;;;5014913;28;20123;-57
2021/11/04 06:56:08;;;;;;;12.15;5.60;;;;;;;;;;5026859;28;20053;-58
2021/11/04 06:58:37;;;;;;;14.88;6.15;;;;;;;;;;5027426;28;20056;-58
2021/11/04 07:01:08;;;;;;;17.25;6.35;;;;;;;;;;5025731;28;20053;-58
2021/11/04 07:03:42;;;;;;;14.35;6.32;;;;;;;;;;5016668;28;20053;-59
2021/11/04 07:06:10;;;;;;;11.73;5.45;;;;;;;;;;5028678;28;20034;-58
2021/11/04 07:08:42;;;;;;;11.68;5.60;;;;;;;;;;5016891;28;20038;-57
2021/11/04 07:11:09;;;;;;;13.40;6.53;;;;;;;;;;5020874;28;20115;-58
2021/11/04 07:13:35;;;;;;;15.50;6.75;;;;;;;;;;5019898;28;20057;-59
2021/11/04 07:16:02;;;;;;;13.98;6.22;;;;;;;;;;5022858;28;20038;-57
2021/11/04 07:18:30;;;;;;;13.57;5.70;;;;;;;;;;5017540;28;20185;-58
2021/11/04 07:21:00;;;;;;;14.50;5.97;;;;;;;;;;5019929;28;20046;-58
2021/11/04 07:23:33;;;;;;;16.23;7.07;;;;;;;;;;5000527;28;20290;-57
2021/11/04 07:26:02;;;;;;;15.52;7.32;;;;;;;;;;5007151;28;20046;-57
2021/11/04 07:28:29;;;;;;;19.40;7.35;;;;;;;;;;5021489;28;20051;-58
2021/11/04 07:30:56;;;;;;;15.98;7.63;;;;;;;;;;4999414;28;20057;-58
2021/11/04 07:33:24;;;;;;;16.42;7.07;;;;;;;;;;5001167;28;20058;-58
2021/11/04 07:35:52;;;;;;;17.00;7.53;;;;;;;;;;5016512;28;20037;-58
2021/11/04 07:38:19;;;;;;;14.77;7.03;;;;;;;;;;5024670;28;20041;-58
2021/11/04 07:40:46;;;;;;;16.30;6.15;;;;;;;;;;5020682;28;20046;-58
2021/11/04 07:43:12;;;;;;;17.00;6.55;;;;;;;;;;5024600;28;20049;-58
2021/11/04 07:45:39;;;;;;;15.27;6.63;;;;;;;;;;5039281;28;20048;-58
2021/11/04 07:48:05;;;;;;;19.23;7.45;;;;;;;;;;5043720;28;20045;-57
2021/11/04 07:50:35;;;;;;;16.75;6.70;;;;;;;;;;5040318;28;20126;-58
2021/11/04 07:53:03;;;;;;;15.27;6.35;;;;;;;;;;5059950;28;20114;-59
2021/11/04 07:55:30;;;;;;;16.35;7.65;;;;;;;;;;5041993;28;20041;-58
2021/11/04 07:57:56;;;;;;;19.63;7.95;;;;;;;;;;5042336;28;20119;-58
2021/11/04 08:00:28;;;;;;;23.63;8.93;;;;;;;;;;5038478;28;20122;-58
2021/11/04 08:02:54;;;;;;;21.58;9.13;;;;;;;;;;5043052;28;20163;-57
2021/11/04 08:05:23;;;;;;;25.13;9.60;;;;;;;;;;5037997;28;20041;-58
2021/11/04 08:07:50;;;;;;;21.50;8.52;;;;;;;;;;5026999;28;20041;-58
2021/11/04 08:10:18;;;;;;;27.73;10.77;;;;;;;;;;5040579;28;20119;-58
2021/11/04 08:12:45;;;;;;;24.63;10.63;;;;;;;;;;5026713;28;20315;-58
2021/11/04 08:15:12;;;;;;;22.52;9.82;;;;;;;;;;5037241;28;20092;-58
2021/11/04 08:17:39;;;;;;;25.85;10.02;;;;;;;;;;5024494;28;20037;-56
2021/11/04 08:20:06;;;;;;;28.92;12.00;;;;;;;;;;5043688;28;20042;-58
2021/11/04 08:22:33;;;;;;;25.38;11.32;;;;;;;;;;5028524;28;20081;-57
2021/11/04 08:25:00;;;;;;;24.25;10.50;;;;;;;;;;5042425;28;20038;-59
2021/11/04 08:27:27;;;;;;;22.27;9.38;;;;;;;;;;5033049;28;20126;-58
2021/11/04 08:29:54;;;;;;;22.67;10.33;;;;;;;;;;5043168;28;20038;-57
2021/11/04 08:32:20;;;;;;;24.80;10.63;;;;;;;;;;5040345;28;20140;-58
2021/11/04 08:34:47;;;;;;;24.17;9.65;;;;;;;;;;5043330;28;20045;-59
2021/11/04 08:37:14;;;;;;;20.67;10.18;;;;;;;;;;5039659;28;20049;-58
2021/11/04 08:39:41;;;;;;;23.23;10.02;;;;;;;;;;5044417;28;20041;-58
2021/11/04 08:42:12;;;;;;;25.33;9.75;;;;;;;;;;5040927;28;20041;-59
2021/11/04 08:44:40;;;;;;;19.90;8.40;;;;;;;;;;5046949;28;20033;-59
2021/11/04 08:47:08;;;;;;;22.77;8.33;;;;;;;;;;5040424;28;20041;-58
2021/11/04 08:49:35;;;;;;;22.42;9.63;;;;;;;;;;5042510;28;20043;-57
2021/11/04 08:52:01;;;;;;;21.08;8.75;;;;;;;;;;5040889;28;20483;-57
2021/11/04 08:54:28;;;;;;;21.58;10.55;;;;;;;;;;5042883;28;20052;-58
2021/11/04 08:56:54;;;;;;;25.42;11.75;;;;;;;;;;5042766;28;20049;-58
2021/11/04 08:59:21;;;;;;;28.52;11.00;;;;;;;;;;5039072;28;20049;-58
2021/11/04 09:01:49;;;;;;;26.33;10.25;;;;;;;;;;5041712;28;20567;-58
2021/11/04 09:04:16;;;;;;;25.17;10.55;;;;;;;;;;5037899;28;20094;-58
2021/11/04 09:06:42;;;;;;;22.83;10.23;;;;;;;;;;5042617;28;20053;-57
2021/11/04 09:09:09;;;;;;;25.60;11.48;;;;;;;;;;5037978;28;20052;-58
2021/11/04 09:11:35;;;;;;;22.90;10.00;;;;;;;;;;5043813;28;20041;-58
2021/11/04 09:14:04;;;;;;;24.95;11.10;;;;;;;;;;5038956;28;20038;-58
2021/11/04 09:16:30;;;;;;;;;;;;;;;;;;5044782;28;20108;-58
2021/11/04 09:18:58;;;;;;;21.60;8.98;;;;;;;;;;5029020;28;19937;-57
2021/11/04 09:21:25;;;;;;;29.97;11.43;;;;;;;;;;5042482;28;20491;-58
2021/11/04 09:23:54;;;;;;;24.08;11.60;;;;;;;;;;5029688;28;20056;-58
2021/11/04 09:26:20;;;;;;;25.40;12.32;;;;;;;;;;5033611;28;20041;-58
2021/11/04 09:28:47;;;;;;;25.73;10.95;;;;;;;;;;5038947;28;20037;-58
2021/11/04 09:31:13;;;;;;;18.23;9.27;;;;;;;;;;5029000;28;20041;-58
2021/11/04 09:33:42;;;;;;;20.67;9.77;;;;;;;;;;5030562;28;20048;-57
2021/11/04 09:36:10;;;;;;;20.38;10.00;;;;;;;;;;5036245;28;20048;-58
2021/11/04 09:38:37;;;;;;;25.17;11.13;;;;;;;;;;5040804;28;20052;-58
2021/11/04 09:41:03;;;;;;;22.33;9.77;;;;;;;;;;5042161;28;20123;-57
2021/11/04 09:43:30;;;;;;;20.55;8.85;;;;;;;;;;5044434;28;20123;-58
2021/11/04 09:45:59;;;;;;;18.25;9.05;;;;;;;;;;5022809;28;20059;-58
2021/11/04 09:48:26;;;;;;;19.08;8.45;;;;;;;;;;5037306;28;20045;-58
2021/11/04 09:50:52;;;;;;;17.23;8.68;;;;;;;;;;5038256;28;20045;-59
2021/11/04 09:53:25;;;;;;;17.45;8.43;;;;;;;;;;5042364;28;20041;-58
2021/11/04 09:55:51;;;;;;;16.40;7.93;;;;;;;;;;5051624;28;20053;-56
2021/11/04 09:58:18;;;;;;;17.60;8.55;;;;;;;;;;5060335;28;20041;-58
2021/11/04 10:00:44;;;;;;;17.33;8.63;;;;;;;;;;5047237;28;20049;-58
2021/11/04 10:03:16;;;;;;;18.05;9.27;;;;;;;;;;5041849;28;20038;-57
2021/11/04 10:05:43;;;;;;;22.55;10.93;;;;;;;;;;5039915;28;20040;-58
2021/11/04 10:08:12;;;;;;;23.02;10.43;;;;;;;;;;5042982;28;20148;-58
2021/11/04 10:10:41;;;;;;;24.20;9.75;;;;;;;;;;5040641;28;20033;-56
2021/11/04 10:13:09;;;;;;;23.63;12.05;;;;;;;;;;5044457;28;20065;-59
2021/11/04 10:15:37;;;;;;;23.40;12.43;;;;;;;;;;5039353;28;20125;-60
2021/11/04 10:18:17;;;;;;;25.83;12.05;;;;;;;;;;5043707;28;20024;-59
2021/11/04 10:20:52;;;;;;;22.23;11.15;;;;;;;;;;5040926;28;20114;-59
2021/11/04 10:23:20;;;;;;;17.25;9.40;;;;;;;;;;5044599;28;20060;-58
2021/11/04 10:25:48;;;;;;;19.88;8.73;;;;;;;;;;5040801;28;20048;-59
2021/11/04 10:28:22;;;;;;;20.33;9.52;;;;;;;;;;5033211;28;20101;-58
2021/11/04 10:30:49;;;;;;;24.48;11.93;;;;;;;;;;5021601;28;20046;-58
2021/11/04 10:33:20;;;;;;;25.67;11.77;;;;;;;;;;5014737;28;20053;-59
2021/11/04 10:35:51;;;;;;;26.77;11.82;;;;;;;;;;5032255;28;20576;-58
2021/11/04 10:38:17;;;;;;;32.65;15.40;;;;;;;;;;5042868;28;20041;-58
2021/11/04 10:40:43;;;;;;;29.40;14.85;;;;;;;;;;5044406;28;20041;-57
2021/11/04 10:43:13;;;;;;;35.25;17.15;;;;;;;;;;5040349;28;20094;-58
2021/11/04 10:45:39;;;;;;;32.80;15.82;;;;;;;;;;5040234;28;20072;-57
2021/11/04 10:48:15;;;;;;;30.48;14.05;;;;;;;;;;5037753;28;20048;-57
2021/11/04 10:50:42;;;;;;;30.77;15.27;;;;;;;;;;5041350;28;20055;-58
2021/11/04 10:53:09;;;;;;;24.95;12.65;;;;;;;;;;5038927;28;20037;-58
2021/11/04 10:55:39;;;;;;;21.40;11.38;;;;;;;;;;5040836;28;20053;-58
2021/11/04 10:58:07;;;;;;;22.88;10.18;;;;;;;;;;5036447;28;20049;-58
2021/11/04 11:00:39;;;;;;;24.98;10.32;;;;;;;;;;5039632;28;20085;-59
2021/11/04 11:03:11;;;;;;;21.80;10.38;;;;;;;;;;5036535;28;20040;-58
2021/11/04 11:05:39;;;;;;;22.75;10.90;;;;;;;;;;5025680;28;20038;-58
2021/11/04 11:08:05;;;;;;;24.50;11.65;;;;;;;;;;5018249;28;20053;-59
2021/11/04 11:10:32;;;;;;;22.83;10.82;;;;;;;;;;5020597;28;20108;-59
2021/11/04 11:12:59;;;;;;;21.00;10.38;;;;;;;;;;5012063;28;20048;-58
2021/11/04 11:15:26;;;;;;;22.45;10.02;;;;;;;;;;5001104;28;20049;-58
2021/11/04 11:17:55;;;;;;;21.08;9.50;;;;;;;;;;5000485;28;20166;-58
2021/11/04 11:20:21;;;;;;;21.88;9.82;;;;;;;;;;5020942;28;20048;-58
2021/11/04 11:22:48;;;;;;;28.75;9.30;;;;;;;;;;5017173;28;20051;-57
2021/11/04 11:25:14;;;;;;;22.27;10.38;;;;;;;;;;5001407;28;20058;-58
2021/11/04 11:27:41;;;;;;;20.85;10.50;;;;;;;;;;5012264;28;20029;-59
2021/11/04 11:30:10;;;;;;;19.95;10.38;;;;;;;;;;5000450;28;20034;-57
2021/11/04 11:32:36;;;;;;;;;;;;;;;;;;5001547;28;20042;-58
2021/11/04 11:35:17;;;;;;;18.42;8.75;;;;;;;;;;4997742;28;19960;-59
2021/11/04 11:38:00;;;;;;;20.77;10.88;;;;;;;;;;5001964;28;20046;-56
2021/11/04 11:40:27;;;;;;;20.42;10.05;;;;;;;;;;5032496;28;20037;-59
2021/11/04 11:43:00;;;;;;;20.98;9.98;;;;;;;;;;5022572;28;20044;-58
2021/11/04 11:45:27;;;;;;;19.70;9.63;;;;;;;;;;5034017;28;20056;-59
2021/11/04 11:47:54;;;;;;;16.90;9.55;;;;;;;;;;5040248;28;20037;-58
2021/11/04 11:50:26;;;;;;;19.38;8.52;;;;;;;;;;5037823;28;20056;-58
2021/11/04 11:52:54;;;;;;;20.73;9.38;;;;;;;;;;5024607;28;20048;-59
2021/11/04 11:55:22;;;;;;;17.50;8.32;;;;;;;;;;5049319;28;20065;-58
2021/11/04 11:58:07;;;;;;;15.48;8.45;;;;;;;;;;5061086;28;20044;-59
2021/11/04 12:00:52;;;;;;;18.92;8.52;;;;;;;;;;5044067;28;20041;-59
2021/11/04 12:03:39;;;;;;;17.02;8.40;;;;;;;;;;5026316;28;20033;-59
2021/11/04 12:06:06;;;;;;;20.17;8.40;;;;;;;;;;5035052;28;20170;-58
2021/11/04 12:08:34;;;;;;;17.07;8.97;;;;;;;;;;5056432;28;20165;-58
2021/11/04 12:11:01;;;;;;;15.10;8.50;;;;;;;;;;5038735;28;20522;-58
2021/11/04 12:13:34;;;;;;;14.52;8.45;;;;;;;;;;5023446;28;20289;-59
2021/11/04 12:16:07;;;;;;;15.68;7.57;;;;;;;;;;5047014;28;20061;-59
2021/11/04 12:18:36;;;;;;;14.35;7.13;;;;;;;;;;5042924;28;20037;-59
2021/11/04 12:21:03;;;;;;;14.55;7.47;;;;;;;;;;5047763;28;20048;-60
2021/11/04 12:23:37;;;;;;;15.63;7.75;;;;;;;;;;5037464;28;20037;-59
2021/11/04 12:26:04;;;;;;;15.02;7.47;;;;;;;;;;5035414;28;20123;-60
2021/11/04 12:28:41;;;;;;;14.57;6.88;;;;;;;;;;5003803;28;20057;-59
2021/11/04 12:31:12;;;;;;;18.15;7.68;;;;;;;;;;5027050;28;20049;-59
2021/11/04 12:33:41;;;;;;;16.25;8.02;;;;;;;;;;5041757;28;20131;-59
2021/11/04 12:36:07;;;;;;;13.50;6.90;;;;;;;;;;5040026;28;20184;-58
2021/11/04 12:38:39;;;;;;;13.45;7.38;;;;;;;;;;5034699;28;20056;-59
2021/11/04 12:41:06;;;;;;;15.05;7.75;;;;;;;;;;5039203;28;20033;-57
2021/11/04 12:43:32;;;;;;;21.20;7.65;;;;;;;;;;5042829;28;20041;-59
2021/11/04 12:46:12;;;;;;;17.00;7.85;;;;;;;;;;5038029;28;20127;-58
2021/11/04 12:48:45;;;;;;;18.75;8.48;;;;;;;;;;5042657;28;20037;-59
2021/11/04 12:51:12;;;;;;;16.42;8.00;;;;;;;;;;5040135;28;20033;-58
2021/11/04 12:53:50;;;;;;;15.05;7.28;;;;;;;;;;5060269;28;20044;-58
2021/11/04 12:56:17;;;;;;;13.18;7.50;;;;;;;;;;5060320;28;20036;-58
2021/11/04 12:58:43;;;;;;;15.48;8.07;;;;;;;;;;5040761;28;20187;-58
2021/11/04 13:01:10;;;;;;;16.65;7.95;;;;;;;;;;5041898;28;20057;-58
2021/11/04 13:03:36;;;;;;;17.02;8.70;;;;;;;;;;5039148;28;20142;-58
2021/11/04 13:06:07;;;;;;;16.10;8.68;;;;;;;;;;5043713;28;20067;-57
2021/11/04 13:08:33;;;;;;;23.08;7.60;;;;;;;;;;5041002;28;20041;-59
2021/11/04 13:11:11;;;;;;;18.58;7.57;;;;;;;;;;5044940;28;20123;-58
2021/11/04 13:13:45;;;;;;;13.13;7.07;;;;;;;;;;5033057;28;20049;-58
2021/11/04 13:16:19;;;;;;;17.42;8.57;;;;;;;;;;5043347;28;20057;-58
2021/11/04 13:18:46;;;;;;;15.88;8.10;;;;;;;;;;5040093;28;20041;-58
2021/11/04 13:21:18;;;;;;;14.35;7.28;;;;;;;;;;5043228;28;20052;-58
2021/11/04 13:23:46;;;;;;;15.43;7.90;;;;;;;;;;5037293;28;20037;-58
2021/11/04 13:26:14;;;;;;;17.15;7.85;;;;;;;;;;5043887;28;20037;-59
2021/11/04 13:28:40;;;;;;;14.77;7.05;;;;;;;;;;5039105;28;20114;-57
2021/11/04 13:31:08;;;;;;;15.82;7.72;;;;;;;;;;5043158;28;20045;-58
2021/11/04 13:33:37;;;;;;;16.10;7.72;;;;;;;;;;5039374;28;20060;-57
2021/11/04 13:36:03;;;;;;;;;;;;;;;;;;5041137;28;20122;-57
2021/11/04 13:38:30;;;;;;;14.07;7.10;;;;;;;;;;5040613;28;19920;-59
2021/11/04 13:41:01;;;;;;;12.73;6.82;;;;;;;;;;5063202;28;20416;-58
2021/11/04 13:43:36;;;;;;;15.77;7.45;;;;;;;;;;5054348;28;20053;-58
2021/11/04 13:46:06;;;;;;;14.57;7.57;;;;;;;;;;5024959;28;20045;-59
2021/11/04 13:48:32;;;;;;;15.80;7.45;;;;;;;;;;5014887;28;20060;-58
2021/11/04 13:50:59;;;;;;;14.45;7.05;;;;;;;;;;5045207;28;20041;-58
2021/11/04 13:53:28;;;;;;;16.48;7.88;;;;;;;;;;5045079;28;20346;-58
2021/11/04 13:55:56;;;;;;;18.50;8.05;;;;;;;;;;5059384;28;20033;-59
2021/11/04 13:58:37;;;;;;;17.85;7.18;;;;;;;;;;5045959;28;20048;-58
2021/11/04 14:01:06;;;;;;;13.70;7.07;;;;;;;;;;5041010;28;20044;-58
2021/11/04 14:03:33;;;;;;;15.85;7.10;;;;;;;;;;5044935;28;20055;-58
2021/11/04 14:06:01;;;;;;;13.57;7.35;;;;;;;;;;5025128;28;20074;-59
2021/11/04 14:08:45;;;;;;;15.15;7.07;;;;;;;;;;5026533;28;20041;-58
2021/11/04 14:11:12;;;;;;;14.63;7.50;;;;;;;;;;5038330;28;20084;-58
2021/11/04 14:13:58;;;;;;;14.05;6.85;;;;;;;;;;5061040;28;20033;-58
2021/11/04 14:16:27;;;;;;;15.35;7.22;;;;;;;;;;5028064;28;20041;-58
2021/11/04 14:18:54;;;;;;;14.77;7.18;;;;;;;;;;5025216;28;20086;-58
2021/11/04 14:21:21;;;;;;;13.15;6.25;;;;;;;;;;5041117;28;20077;-58
2021/11/04 14:23:48;;;;;;;12.15;5.80;;;;;;;;;;5038153;28;20061;-58
2021/11/04 14:26:14;;;;;;;12.20;6.80;;;;;;;;;;5040064;28;20470;-59
2021/11/04 14:28:42;;;;;;;15.38;7.13;;;;;;;;;;5045757;28;20118;-58
2021/11/04 14:31:11;;;;;;;15.18;6.53;;;;;;;;;;5041537;28;20060;-58